This is the latest recevied weather packets stored in our database for station/object IQ1GE. If no packets are shown the sender has not sent any weather packets the latest 10 day(s).
| Time | Temp. | Humidity | Pressure | Rain* | Wind** | Luminosity | Snow |
|---|---|---|---|---|---|---|---|
| 1778213072 | 16.67° C | 65% | 1013.8 hPa | 0 mm | - | - | - |
| 1778212475 | 17.22° C | 63% | 1013.8 hPa | 0 mm | - | - | - |
| 1778212172 | 17.78° C | 61% | 1013.8 hPa | 0 mm | - | - | - |
| 1778211872 | 17.78° C | 60% | 1013.8 hPa | 0 mm | - | - | - |
| 1778210378 | 18.33° C | 58% | 1013.8 hPa | 0 mm | - | - | - |
| 1778210078 | 18.33° C | 58% | 1013.8 hPa | 0 mm | - | - | - |
| 1778209781 | 18.33° C | 58% | 1013.8 hPa | 0 mm | - | - | - |
| 1778209178 | 17.78° C | 59% | 1013.9 hPa | 0 mm | - | - | - |
| 1778206178 | 16.67° C | 61% | 1014.3 hPa | 0 mm | - | - | - |
| 1778205876 | 16.67° C | 60% | 1014.3 hPa | 0 mm | - | - | - |
| 1778204370 | 16.11° C | 65% | 1014.5 hPa | 0 mm | - | - | - |
| 1778203770 | 15.56° C | 67% | 1014.6 hPa | 0 mm | - | - | - |
| 1778201970 | 15.56° C | 70% | 1014.9 hPa | 0 mm | - | - | - |
| 1778201370 | 15.56° C | 70% | 1014.9 hPa | 0 mm | - | - | - |
| 1778200770 | 15.56° C | 72% | 1015 hPa | 0 mm | - | - | - |
| 1778200470 | 15.56° C | 73% | 1015.1 hPa | 0 mm | - | - | - |
| 1778200173 | 15.56° C | 73% | 1015.2 hPa | 0 mm | - | - | - |
| 1778199573 | 15.56° C | 75% | 1015.3 hPa | 0 mm | - | - | - |
| 1778197773 | 15° C | 78% | 1015.7 hPa | 0 mm | - | - | - |
| 1778195670 | 15.56° C | 79% | 1016 hPa | 0 mm | - | - | - |
| 1778195373 | 15.56° C | 79% | 1016 hPa | 0 mm | - | - | - |
| 1778195073 | 15.56° C | 79% | 1016.1 hPa | 0 mm | - | - | - |
| 1778194176 | 15° C | 82% | 1016.3 hPa | 0 mm | - | - | - |
| 1778192973 | 15.56° C | 82% | 1016.2 hPa | 0 mm | - | - | - |
| 1778190870 | 15.56° C | 85% | 1016 hPa | 0 mm | - | - | - |
* Rain latest hour (hover to see other rain measurements)
** Current wind speed in m/s (hover to see current wind gust speed)